sensor_id;sensor_type;location;lat;lon;timestamp;P1;durP1;ratioP1;P2;durP2;ratioP2
79566;SDS011;69030;48.126;7.816;2023-06-10T00:32:25;3.97;;;2.45;;
79566;SDS011;69030;48.126;7.816;2023-06-10T00:34:51;8.48;;;3.42;;
79566;SDS011;69030;48.126;7.816;2023-06-10T00:37:16;4.85;;;2.95;;
79566;SDS011;69030;48.126;7.816;2023-06-10T00:39:41;4.35;;;2.92;;
79566;SDS011;69030;48.126;7.816;2023-06-10T00:42:07;5.22;;;3.75;;
79566;SDS011;69030;48.126;7.816;2023-06-10T00:44:33;5.18;;;3.35;;
79566;SDS011;69030;48.126;7.816;2023-06-10T00:46:58;3.78;;;2.50;;
79566;SDS011;69030;48.126;7.816;2023-06-10T00:49:23;4.18;;;2.95;;
79566;SDS011;69030;48.126;7.816;2023-06-10T00:51:49;14.55;;;3.10;;
79566;SDS011;69030;48.126;7.816;2023-06-10T00:54:16;5.88;;;4.00;;
79566;SDS011;69030;48.126;7.816;2023-06-10T00:56:42;4.10;;;3.42;;
79566;SDS011;69030;48.126;7.816;2023-06-10T00:59:08;4.32;;;3.58;;
79566;SDS011;69030;48.126;7.816;2023-06-10T01:01:33;7.43;;;3.40;;
79566;SDS011;69030;48.126;7.816;2023-06-10T01:03:59;4.47;;;3.33;;
79566;SDS011;69030;48.126;7.816;2023-06-10T01:09:21;4.90;;;3.83;;
79566;SDS011;69030;48.126;7.816;2023-06-10T01:11:52;5.82;;;3.17;;
79566;SDS011;69030;48.126;7.816;2023-06-10T01:14:23;4.38;;;3.30;;
79566;SDS011;69030;48.126;7.816;2023-06-10T01:16:49;3.78;;;2.78;;
79566;SDS011;69030;48.126;7.816;2023-06-10T01:19:17;4.93;;;3.17;;
79566;SDS011;69030;48.126;7.816;2023-06-10T01:21:42;3.65;;;2.65;;
79566;SDS011;69030;48.126;7.816;2023-06-10T01:24:13;3.58;;;3.20;;
79566;SDS011;69030;48.126;7.816;2023-06-10T01:26:39;4.97;;;3.20;;
79566;SDS011;69030;48.126;7.816;2023-06-10T01:29:11;4.38;;;2.90;;
79566;SDS011;69030;48.126;7.816;2023-06-10T01:31:49;4.28;;;2.85;;
79566;SDS011;69030;48.126;7.816;2023-06-10T01:34:21;4.55;;;2.83;;
79566;SDS011;69030;48.126;7.816;2023-06-10T01:36:48;4.75;;;3.47;;
79566;SDS011;69030;48.126;7.816;2023-06-10T01:39:15;4.50;;;3.42;;
79566;SDS011;69030;48.126;7.816;2023-06-10T01:41:41;4.55;;;3.50;;
79566;SDS011;69030;48.126;7.816;2023-06-10T01:44:06;3.42;;;2.78;;
79566;SDS011;69030;48.126;7.816;2023-06-10T01:46:32;4.22;;;2.78;;
79566;SDS011;69030;48.126;7.816;2023-06-10T01:48:57;5.68;;;3.15;;
79566;SDS011;69030;48.126;7.816;2023-06-10T01:51:23;8.43;;;3.35;;
79566;SDS011;69030;48.126;7.816;2023-06-10T01:53:51;4.25;;;3.28;;
79566;SDS011;69030;48.126;7.816;2023-06-10T01:56:16;5.13;;;3.38;;
79566;SDS011;69030;48.126;7.816;2023-06-10T01:58:44;4.63;;;3.25;;
79566;SDS011;69030;48.126;7.816;2023-06-10T02:01:10;4.47;;;3.60;;
79566;SDS011;69030;48.126;7.816;2023-06-10T02:03:35;5.28;;;3.28;;
79566;SDS011;69030;48.126;7.816;2023-06-10T02:06:01;5.57;;;3.58;;
79566;SDS011;69030;48.126;7.816;2023-06-10T02:08:26;4.57;;;3.78;;
79566;SDS011;69030;48.126;7.816;2023-06-10T02:10:52;5.47;;;3.10;;
79566;SDS011;69030;48.126;7.816;2023-06-10T02:13:18;5.82;;;3.03;;
79566;SDS011;69030;48.126;7.816;2023-06-10T02:15:43;6.00;;;3.17;;
79566;SDS011;69030;48.126;7.816;2023-06-10T02:18:09;5.22;;;3.25;;
79566;SDS011;69030;48.126;7.816;2023-06-10T02:20:35;4.40;;;3.40;;
79566;SDS011;69030;48.126;7.816;2023-06-10T02:23:00;4.40;;;3.53;;
79566;SDS011;69030;48.126;7.816;2023-06-10T02:25:26;4.03;;;3.28;;
79566;SDS011;69030;48.126;7.816;2023-06-10T02:27:51;6.30;;;3.92;;
79566;SDS011;69030;48.126;7.816;2023-06-10T02:30:16;4.97;;;3.58;;
79566;SDS011;69030;48.126;7.816;2023-06-10T02:32:42;5.03;;;3.60;;
79566;SDS011;69030;48.126;7.816;2023-06-10T02:35:07;5.80;;;3.08;;
79566;SDS011;69030;48.126;7.816;2023-06-10T02:37:33;5.18;;;3.90;;
79566;SDS011;69030;48.126;7.816;2023-06-10T02:39:58;5.70;;;3.75;;
79566;SDS011;69030;48.126;7.816;2023-06-10T02:42:23;5.97;;;5.28;;
79566;SDS011;69030;48.126;7.816;2023-06-10T02:44:49;5.68;;;4.18;;
79566;SDS011;69030;48.126;7.816;2023-06-10T02:47:14;5.20;;;4.10;;
79566;SDS011;69030;48.126;7.816;2023-06-10T02:49:40;5.10;;;3.80;;
79566;SDS011;69030;48.126;7.816;2023-06-10T02:52:05;4.78;;;3.60;;
79566;SDS011;69030;48.126;7.816;2023-06-10T02:54:33;4.93;;;3.50;;
79566;SDS011;69030;48.126;7.816;2023-06-10T02:56:58;5.85;;;3.53;;
79566;SDS011;69030;48.126;7.816;2023-06-10T02:59:23;5.13;;;4.07;;
79566;SDS011;69030;48.126;7.816;2023-06-10T03:01:49;5.25;;;4.13;;
79566;SDS011;69030;48.126;7.816;2023-06-10T03:04:14;5.90;;;3.80;;
79566;SDS011;69030;48.126;7.816;2023-06-10T03:06:40;5.10;;;3.70;;
79566;SDS011;69030;48.126;7.816;2023-06-10T03:09:06;5.95;;;4.20;;
79566;SDS011;69030;48.126;7.816;2023-06-10T03:11:32;5.40;;;4.20;;
79566;SDS011;69030;48.126;7.816;2023-06-10T03:13:58;5.18;;;4.65;;
79566;SDS011;69030;48.126;7.816;2023-06-10T03:16:23;8.70;;;4.20;;
79566;SDS011;69030;48.126;7.816;2023-06-10T03:18:50;5.72;;;4.55;;
79566;SDS011;69030;48.126;7.816;2023-06-10T03:21:15;4.78;;;4.00;;
79566;SDS011;69030;48.126;7.816;2023-06-10T03:23:41;5.97;;;4.70;;
79566;SDS011;69030;48.126;7.816;2023-06-10T03:26:06;6.10;;;4.18;;
79566;SDS011;69030;48.126;7.816;2023-06-10T03:28:32;5.63;;;3.88;;
79566;SDS011;69030;48.126;7.816;2023-06-10T03:30:58;6.20;;;4.18;;
79566;SDS011;69030;48.126;7.816;2023-06-10T03:33:23;4.75;;;3.95;;
79566;SDS011;69030;48.126;7.816;2023-06-10T03:35:48;5.90;;;4.80;;
79566;SDS011;69030;48.126;7.816;2023-06-10T03:38:14;5.95;;;3.63;;
79566;SDS011;69030;48.126;7.816;2023-06-10T03:40:39;6.28;;;3.97;;
79566;SDS011;69030;48.126;7.816;2023-06-10T03:43:05;6.10;;;3.90;;
79566;SDS011;69030;48.126;7.816;2023-06-10T03:45:30;8.23;;;4.32;;
79566;SDS011;69030;48.126;7.816;2023-06-10T03:47:57;5.93;;;4.10;;
79566;SDS011;69030;48.126;7.816;2023-06-10T03:50:22;7.43;;;6.20;;
79566;SDS011;69030;48.126;7.816;2023-06-10T03:52:48;8.05;;;4.50;;
79566;SDS011;69030;48.126;7.816;2023-06-10T03:55:14;6.65;;;4.10;;
79566;SDS011;69030;48.126;7.816;2023-06-10T03:57:41;7.70;;;4.00;;
79566;SDS011;69030;48.126;7.816;2023-06-10T04:00:07;5.97;;;4.40;;
79566;SDS011;69030;48.126;7.816;2023-06-10T04:02:36;6.00;;;4.28;;
79566;SDS011;69030;48.126;7.816;2023-06-10T04:05:01;7.75;;;4.13;;
79566;SDS011;69030;48.126;7.816;2023-06-10T04:07:27;6.70;;;4.57;;
79566;SDS011;69030;48.126;7.816;2023-06-10T04:09:53;9.38;;;5.55;;
79566;SDS011;69030;48.126;7.816;2023-06-10T04:12:18;7.22;;;4.32;;
79566;SDS011;69030;48.126;7.816;2023-06-10T04:14:44;6.07;;;4.80;;
79566;SDS011;69030;48.126;7.816;2023-06-10T04:17:09;5.68;;;4.60;;
79566;SDS011;69030;48.126;7.816;2023-06-10T04:19:35;6.50;;;5.18;;
79566;SDS011;69030;48.126;7.816;2023-06-10T04:22:01;5.95;;;3.60;;
79566;SDS011;69030;48.126;7.816;2023-06-10T04:24:27;9.13;;;4.93;;
79566;SDS011;69030;48.126;7.816;2023-06-10T04:26:53;7.57;;;4.57;;
79566;SDS011;69030;48.126;7.816;2023-06-10T04:29:18;7.90;;;4.90;;
79566;SDS011;69030;48.126;7.816;2023-06-10T04:31:43;6.90;;;5.13;;
79566;SDS011;69030;48.126;7.816;2023-06-10T04:34:11;7.78;;;4.68;;
79566;SDS011;69030;48.126;7.816;2023-06-10T04:36:36;7.65;;;4.88;;
79566;SDS011;69030;48.126;7.816;2023-06-10T04:39:01;7.03;;;5.05;;
79566;SDS011;69030;48.126;7.816;2023-06-10T04:41:27;6.95;;;6.25;;
79566;SDS011;69030;48.126;7.816;2023-06-10T04:43:52;6.25;;;4.72;;
79566;SDS011;69030;48.126;7.816;2023-06-10T04:46:18;7.35;;;4.85;;
79566;SDS011;69030;48.126;7.816;2023-06-10T04:48:44;6.93;;;3.85;;
79566;SDS011;69030;48.126;7.816;2023-06-10T04:51:11;6.10;;;4.32;;
79566;SDS011;69030;48.126;7.816;2023-06-10T04:53:36;6.13;;;4.85;;
79566;SDS011;69030;48.126;7.816;2023-06-10T04:56:02;6.97;;;5.75;;
79566;SDS011;69030;48.126;7.816;2023-06-10T04:58:28;7.53;;;5.32;;
79566;SDS011;69030;48.126;7.816;2023-06-10T05:00:53;8.18;;;5.05;;
79566;SDS011;69030;48.126;7.816;2023-06-10T05:03:18;8.43;;;4.93;;
79566;SDS011;69030;48.126;7.816;2023-06-10T05:05:44;7.25;;;5.20;;
79566;SDS011;69030;48.126;7.816;2023-06-10T05:08:09;6.45;;;4.97;;
79566;SDS011;69030;48.126;7.816;2023-06-10T05:10:35;7.45;;;5.28;;
79566;SDS011;69030;48.126;7.816;2023-06-10T05:13:00;6.88;;;5.78;;
79566;SDS011;69030;48.126;7.816;2023-06-10T05:15:25;7.88;;;4.93;;
79566;SDS011;69030;48.126;7.816;2023-06-10T05:17:51;8.45;;;5.47;;
79566;SDS011;69030;48.126;7.816;2023-06-10T05:20:17;7.65;;;5.22;;
79566;SDS011;69030;48.126;7.816;2023-06-10T05:22:43;6.82;;;4.88;;
79566;SDS011;69030;48.126;7.816;2023-06-10T05:25:09;7.97;;;5.43;;
79566;SDS011;69030;48.126;7.816;2023-06-10T05:27:34;6.93;;;4.78;;
79566;SDS011;69030;48.126;7.816;2023-06-10T05:30:00;6.20;;;4.80;;
79566;SDS011;69030;48.126;7.816;2023-06-10T05:32:26;7.95;;;4.97;;
79566;SDS011;69030;48.126;7.816;2023-06-10T05:34:51;8.13;;;5.40;;
79566;SDS011;69030;48.126;7.816;2023-06-10T05:37:16;5.68;;;4.78;;
79566;SDS011;69030;48.126;7.816;2023-06-10T05:39:42;6.95;;;4.80;;
79566;SDS011;69030;48.126;7.816;2023-06-10T05:42:07;7.90;;;4.90;;
79566;SDS011;69030;48.126;7.816;2023-06-10T05:44:33;6.05;;;5.40;;
79566;SDS011;69030;48.126;7.816;2023-06-10T05:46:59;7.20;;;4.97;;
79566;SDS011;69030;48.126;7.816;2023-06-10T05:49:24;8.05;;;6.07;;
79566;SDS011;69030;48.126;7.816;2023-06-10T05:51:49;6.07;;;4.85;;
79566;SDS011;69030;48.126;7.816;2023-06-10T05:54:15;7.55;;;4.93;;
79566;SDS011;69030;48.126;7.816;2023-06-10T05:56:40;7.25;;;5.05;;
79566;SDS011;69030;48.126;7.816;2023-06-10T05:59:05;8.15;;;4.82;;
79566;SDS011;69030;48.126;7.816;2023-06-10T06:01:31;7.22;;;5.50;;
79566;SDS011;69030;48.126;7.816;2023-06-10T06:03:56;7.20;;;4.88;;
79566;SDS011;69030;48.126;7.816;2023-06-10T06:06:22;5.97;;;4.95;;
79566;SDS011;69030;48.126;7.816;2023-06-10T06:08:48;5.90;;;4.80;;
79566;SDS011;69030;48.126;7.816;2023-06-10T06:11:13;6.97;;;5.55;;
79566;SDS011;69030;48.126;7.816;2023-06-10T06:13:38;5.43;;;4.93;;
79566;SDS011;69030;48.126;7.816;2023-06-10T06:16:04;6.05;;;4.38;;
79566;SDS011;69030;48.126;7.816;2023-06-10T06:18:29;6.78;;;4.15;;
79566;SDS011;69030;48.126;7.816;2023-06-10T06:20:54;5.75;;;4.85;;
79566;SDS011;69030;48.126;7.816;2023-06-10T06:23:20;6.15;;;4.35;;
79566;SDS011;69030;48.126;7.816;2023-06-10T06:25:45;5.15;;;4.20;;
79566;SDS011;69030;48.126;7.816;2023-06-10T06:28:10;5.40;;;3.80;;
79566;SDS011;69030;48.126;7.816;2023-06-10T06:30:36;6.85;;;4.20;;
79566;SDS011;69030;48.126;7.816;2023-06-10T06:33:02;6.78;;;4.38;;
79566;SDS011;69030;48.126;7.816;2023-06-10T06:35:27;5.97;;;3.55;;
79566;SDS011;69030;48.126;7.816;2023-06-10T06:37:52;4.65;;;4.05;;
79566;SDS011;69030;48.126;7.816;2023-06-10T06:40:18;6.50;;;4.00;;
79566;SDS011;69030;48.126;7.816;2023-06-10T06:42:44;5.25;;;3.70;;
79566;SDS011;69030;48.126;7.816;2023-06-10T06:45:09;4.93;;;4.38;;
79566;SDS011;69030;48.126;7.816;2023-06-10T06:47:35;7.68;;;4.50;;
79566;SDS011;69030;48.126;7.816;2023-06-10T06:50:00;6.75;;;3.97;;
79566;SDS011;69030;48.126;7.816;2023-06-10T06:52:26;7.65;;;5.55;;
79566;SDS011;69030;48.126;7.816;2023-06-10T06:54:51;6.10;;;4.28;;
79566;SDS011;69030;48.126;7.816;2023-06-10T06:57:17;7.40;;;4.82;;
79566;SDS011;69030;48.126;7.816;2023-06-10T06:59:42;4.95;;;4.45;;
79566;SDS011;69030;48.126;7.816;2023-06-10T07:02:08;6.60;;;5.38;;
79566;SDS011;69030;48.126;7.816;2023-06-10T07:04:33;5.55;;;3.55;;
79566;SDS011;69030;48.126;7.816;2023-06-10T07:06:58;4.60;;;3.90;;
79566;SDS011;69030;48.126;7.816;2023-06-10T07:09:24;7.13;;;5.03;;
79566;SDS011;69030;48.126;7.816;2023-06-10T07:11:49;7.45;;;4.18;;
79566;SDS011;69030;48.126;7.816;2023-06-10T07:14:15;4.70;;;4.22;;
79566;SDS011;69030;48.126;7.816;2023-06-10T07:16:40;8.43;;;4.03;;
79566;SDS011;69030;48.126;7.816;2023-06-10T07:19:05;20.05;;;5.68;;
79566;SDS011;69030;48.126;7.816;2023-06-10T07:21:31;5.82;;;4.30;;
79566;SDS011;69030;48.126;7.816;2023-06-10T07:23:57;5.35;;;4.40;;
79566;SDS011;69030;48.126;7.816;2023-06-10T07:26:23;5.68;;;4.72;;
79566;SDS011;69030;48.126;7.816;2023-06-10T07:28:48;4.82;;;4.35;;
79566;SDS011;69030;48.126;7.816;2023-06-10T07:31:13;4.78;;;3.90;;
79566;SDS011;69030;48.126;7.816;2023-06-10T07:33:39;7.05;;;4.70;;
79566;SDS011;69030;48.126;7.816;2023-06-10T07:36:05;6.35;;;5.75;;
79566;SDS011;69030;48.126;7.816;2023-06-10T07:38:31;5.22;;;3.92;;
79566;SDS011;69030;48.126;7.816;2023-06-10T07:40:56;4.85;;;4.07;;
79566;SDS011;69030;48.126;7.816;2023-06-10T07:43:21;6.05;;;4.18;;
79566;SDS011;69030;48.126;7.816;2023-06-10T07:45:47;8.15;;;4.47;;
79566;SDS011;69030;48.126;7.816;2023-06-10T07:48:12;4.95;;;4.32;;
79566;SDS011;69030;48.126;7.816;2023-06-10T07:50:37;5.25;;;4.38;;
79566;SDS011;69030;48.126;7.816;2023-06-10T07:53:03;6.43;;;4.72;;
79566;SDS011;69030;48.126;7.816;2023-06-10T07:55:28;6.55;;;4.78;;
79566;SDS011;69030;48.126;7.816;2023-06-10T07:57:54;5.35;;;4.32;;
79566;SDS011;69030;48.126;7.816;2023-06-10T08:00:19;6.22;;;4.30;;
79566;SDS011;69030;48.126;7.816;2023-06-10T08:02:45;7.43;;;4.25;;
79566;SDS011;69030;48.126;7.816;2023-06-10T08:05:11;7.15;;;4.88;;
79566;SDS011;69030;48.126;7.816;2023-06-10T08:07:36;6.82;;;5.63;;
79566;SDS011;69030;48.126;7.816;2023-06-10T08:10:02;7.57;;;5.40;;
79566;SDS011;69030;48.126;7.816;2023-06-10T08:12:29;8.07;;;4.75;;
79566;SDS011;69030;48.126;7.816;2023-06-10T08:14:54;7.03;;;5.55;;
79566;SDS011;69030;48.126;7.816;2023-06-10T08:17:20;8.52;;;5.18;;
79566;SDS011;69030;48.126;7.816;2023-06-10T08:19:45;7.85;;;6.57;;
79566;SDS011;69030;48.126;7.816;2023-06-10T08:22:10;9.05;;;6.10;;
79566;SDS011;69030;48.126;7.816;2023-06-10T08:24:36;9.13;;;6.60;;
79566;SDS011;69030;48.126;7.816;2023-06-10T08:27:01;7.72;;;5.57;;
79566;SDS011;69030;48.126;7.816;2023-06-10T08:29:26;6.85;;;6.22;;
79566;SDS011;69030;48.126;7.816;2023-06-10T08:31:52;7.30;;;6.50;;
79566;SDS011;69030;48.126;7.816;2023-06-10T08:34:17;11.25;;;7.22;;
79566;SDS011;69030;48.126;7.816;2023-06-10T08:36:43;7.47;;;5.80;;
79566;SDS011;69030;48.126;7.816;2023-06-10T08:39:09;7.47;;;6.57;;
79566;SDS011;69030;48.126;7.816;2023-06-10T08:41:35;10.38;;;5.85;;
79566;SDS011;69030;48.126;7.816;2023-06-10T08:44:22;9.63;;;7.75;;
79566;SDS011;69030;48.126;7.816;2023-06-10T08:46:59;7.18;;;6.10;;
79566;SDS011;69030;48.126;7.816;2023-06-10T08:49:26;11.43;;;5.88;;
79566;SDS011;69030;48.126;7.816;2023-06-10T08:51:52;14.68;;;6.95;;
79566;SDS011;69030;48.126;7.816;2023-06-10T08:54:21;9.05;;;6.65;;
79566;SDS011;69030;48.126;7.816;2023-06-10T08:56:48;6.20;;;5.22;;
79566;SDS011;69030;48.126;7.816;2023-06-10T08:59:15;7.45;;;6.55;;
79566;SDS011;69030;48.126;7.816;2023-06-10T09:01:41;9.95;;;5.55;;
79566;SDS011;69030;48.126;7.816;2023-06-10T09:04:07;18.48;;;7.38;;
79566;SDS011;69030;48.126;7.816;2023-06-10T09:06:32;11.85;;;6.20;;
79566;SDS011;69030;48.126;7.816;2023-06-10T09:08:59;7.20;;;5.60;;
79566;SDS011;69030;48.126;7.816;2023-06-10T09:11:25;45.60;;;7.53;;
79566;SDS011;69030;48.126;7.816;2023-06-10T09:13:50;101.68;;;13.15;;
79566;SDS011;69030;48.126;7.816;2023-06-10T09:16:16;8.23;;;5.38;;
79566;SDS011;69030;48.126;7.816;2023-06-10T09:18:41;9.32;;;5.65;;
79566;SDS011;69030;48.126;7.816;2023-06-10T09:21:07;12.50;;;5.70;;
79566;SDS011;69030;48.126;7.816;2023-06-10T09:23:32;21.35;;;6.35;;
79566;SDS011;69030;48.126;7.816;2023-06-10T09:25:58;11.23;;;5.75;;
79566;SDS011;69030;48.126;7.816;2023-06-10T09:28:24;7.30;;;6.32;;
79566;SDS011;69030;48.126;7.816;2023-06-10T09:30:50;7.38;;;5.35;;
79566;SDS011;69030;48.126;7.816;2023-06-10T09:33:27;7.38;;;5.97;;
79566;SDS011;69030;48.126;7.816;2023-06-10T09:35:52;6.15;;;5.45;;
79566;SDS011;69030;48.126;7.816;2023-06-10T09:38:19;9.15;;;5.97;;
79566;SDS011;69030;48.126;7.816;2023-06-10T09:40:52;6.50;;;5.47;;
79566;SDS011;69030;48.126;7.816;2023-06-10T09:43:20;5.82;;;5.22;;
79566;SDS011;69030;48.126;7.816;2023-06-10T09:45:49;6.53;;;5.68;;
79566;SDS011;69030;48.126;7.816;2023-06-10T09:48:21;7.88;;;6.40;;
79566;SDS011;69030;48.126;7.816;2023-06-10T09:50:48;10.95;;;6.07;;
79566;SDS011;69030;48.126;7.816;2023-06-10T09:53:14;6.78;;;6.07;;
79566;SDS011;69030;48.126;7.816;2023-06-10T09:55:40;6.70;;;5.97;;
79566;SDS011;69030;48.126;7.816;2023-06-10T09:58:06;5.95;;;5.00;;
79566;SDS011;69030;48.126;7.816;2023-06-10T10:00:32;7.10;;;5.15;;
79566;SDS011;69030;48.126;7.816;2023-06-10T10:02:58;6.68;;;5.05;;
79566;SDS011;69030;48.126;7.816;2023-06-10T10:05:24;7.88;;;5.90;;
79566;SDS011;69030;48.126;7.816;2023-06-10T10:07:49;6.57;;;5.00;;
79566;SDS011;69030;48.126;7.816;2023-06-10T10:10:15;10.13;;;8.13;;
79566;SDS011;69030;48.126;7.816;2023-06-10T10:12:43;7.38;;;5.30;;
79566;SDS011;69030;48.126;7.816;2023-06-10T10:15:11;7.78;;;5.63;;
79566;SDS011;69030;48.126;7.816;2023-06-10T10:17:37;6.50;;;5.60;;
79566;SDS011;69030;48.126;7.816;2023-06-10T10:20:05;6.45;;;5.30;;
79566;SDS011;69030;48.126;7.816;2023-06-10T10:22:37;7.95;;;5.55;;
79566;SDS011;69030;48.126;7.816;2023-06-10T10:25:05;6.18;;;5.18;;
79566;SDS011;69030;48.126;7.816;2023-06-10T10:27:36;7.50;;;5.05;;
79566;SDS011;69030;48.126;7.816;2023-06-10T10:30:06;7.05;;;5.03;;
79566;SDS011;69030;48.126;7.816;2023-06-10T10:32:38;5.72;;;4.90;;
79566;SDS011;69030;48.126;7.816;2023-06-10T10:35:09;7.53;;;4.72;;
79566;SDS011;69030;48.126;7.816;2023-06-10T10:37:37;7.82;;;4.78;;
79566;SDS011;69030;48.126;7.816;2023-06-10T10:40:04;7.00;;;5.38;;
79566;SDS011;69030;48.126;7.816;2023-06-10T10:42:29;7.57;;;5.18;;
79566;SDS011;69030;48.126;7.816;2023-06-10T10:44:55;9.57;;;6.00;;
79566;SDS011;69030;48.126;7.816;2023-06-10T10:47:21;8.35;;;5.22;;
79566;SDS011;69030;48.126;7.816;2023-06-10T10:49:48;8.38;;;6.00;;
79566;SDS011;69030;48.126;7.816;2023-06-10T10:52:14;11.65;;;5.55;;
79566;SDS011;69030;48.126;7.816;2023-06-10T10:54:43;12.20;;;6.50;;
79566;SDS011;69030;48.126;7.816;2023-06-10T10:57:16;8.13;;;5.82;;
79566;SDS011;69030;48.126;7.816;2023-06-10T11:02:17;8.05;;;5.97;;
79566;SDS011;69030;48.126;7.816;2023-06-10T11:04:47;7.45;;;5.82;;
79566;SDS011;69030;48.126;7.816;2023-06-10T11:07:12;7.38;;;5.22;;
79566;SDS011;69030;48.126;7.816;2023-06-10T11:09:57;5.63;;;4.63;;
79566;SDS011;69030;48.126;7.816;2023-06-10T11:12:22;5.13;;;4.55;;
79566;SDS011;69030;48.126;7.816;2023-06-10T11:14:53;9.18;;;5.65;;
79566;SDS011;69030;48.126;7.816;2023-06-10T11:17:20;6.15;;;4.45;;
79566;SDS011;69030;48.126;7.816;2023-06-10T11:19:45;5.18;;;4.68;;
79566;SDS011;69030;48.126;7.816;2023-06-10T11:22:16;5.68;;;5.10;;
79566;SDS011;69030;48.126;7.816;2023-06-10T11:24:47;5.82;;;4.13;;
79566;SDS011;69030;48.126;7.816;2023-06-10T11:27:19;6.22;;;5.05;;
79566;SDS011;69030;48.126;7.816;2023-06-10T11:29:58;8.80;;;5.32;;
79566;SDS011;69030;48.126;7.816;2023-06-10T11:32:43;6.85;;;4.80;;
79566;SDS011;69030;48.126;7.816;2023-06-10T11:35:09;5.75;;;4.32;;
79566;SDS011;69030;48.126;7.816;2023-06-10T11:37:34;6.15;;;4.28;;
79566;SDS011;69030;48.126;7.816;2023-06-10T11:40:00;5.20;;;4.47;;
79566;SDS011;69030;48.126;7.816;2023-06-10T11:42:25;6.10;;;4.20;;
79566;SDS011;69030;48.126;7.816;2023-06-10T11:44:51;5.28;;;4.78;;
79566;SDS011;69030;48.126;7.816;2023-06-10T11:47:18;5.55;;;3.95;;
79566;SDS011;69030;48.126;7.816;2023-06-10T11:49:44;4.63;;;3.80;;
79566;SDS011;69030;48.126;7.816;2023-06-10T11:52:10;5.43;;;4.10;;
79566;SDS011;69030;48.126;7.816;2023-06-10T11:54:36;4.82;;;4.20;;
79566;SDS011;69030;48.126;7.816;2023-06-10T11:57:02;5.57;;;3.97;;
79566;SDS011;69030;48.126;7.816;2023-06-10T11:59:28;9.45;;;4.50;;
79566;SDS011;69030;48.126;7.816;2023-06-10T12:01:54;4.80;;;4.15;;
79566;SDS011;69030;48.126;7.816;2023-06-10T12:04:20;5.65;;;5.05;;
79566;SDS011;69030;48.126;7.816;2023-06-10T12:06:50;4.88;;;4.05;;
79566;SDS011;69030;48.126;7.816;2023-06-10T12:09:22;5.25;;;4.13;;
79566;SDS011;69030;48.126;7.816;2023-06-10T12:11:50;5.13;;;4.00;;
79566;SDS011;69030;48.126;7.816;2023-06-10T12:19:59;4.50;;;3.90;;
79566;SDS011;69030;48.126;7.816;2023-06-10T12:22:25;4.68;;;3.88;;
79566;SDS011;69030;48.126;7.816;2023-06-10T12:25:01;4.75;;;3.53;;
79566;SDS011;69030;48.126;7.816;2023-06-10T12:27:31;4.30;;;3.72;;
79566;SDS011;69030;48.126;7.816;2023-06-10T12:29:57;4.45;;;3.63;;
79566;SDS011;69030;48.126;7.816;2023-06-10T12:32:40;4.15;;;3.75;;
79566;SDS011;69030;48.126;7.816;2023-06-10T12:35:06;4.85;;;3.40;;
79566;SDS011;69030;48.126;7.816;2023-06-10T12:37:32;4.47;;;3.78;;
79566;SDS011;69030;48.126;7.816;2023-06-10T12:40:02;4.78;;;2.95;;
79566;SDS011;69030;48.126;7.816;2023-06-10T12:42:29;4.15;;;3.70;;
79566;SDS011;69030;48.126;7.816;2023-06-10T12:44:56;6.15;;;4.10;;
79566;SDS011;69030;48.126;7.816;2023-06-10T12:49:57;5.40;;;3.22;;
79566;SDS011;69030;48.126;7.816;2023-06-10T12:52:24;4.53;;;3.75;;
79566;SDS011;69030;48.126;7.816;2023-06-10T12:54:49;6.65;;;3.83;;
79566;SDS011;69030;48.126;7.816;2023-06-10T12:57:15;3.83;;;2.88;;
79566;SDS011;69030;48.126;7.816;2023-06-10T12:59:40;4.68;;;3.05;;
79566;SDS011;69030;48.126;7.816;2023-06-10T13:02:07;4.82;;;4.43;;
79566;SDS011;69030;48.126;7.816;2023-06-10T13:04:32;5.38;;;2.90;;
79566;SDS011;69030;48.126;7.816;2023-06-10T13:06:58;8.40;;;3.45;;
79566;SDS011;69030;48.126;7.816;2023-06-10T13:09:24;4.15;;;3.33;;
79566;SDS011;69030;48.126;7.816;2023-06-10T13:11:49;3.83;;;3.25;;
79566;SDS011;69030;48.126;7.816;2023-06-10T13:14:15;3.05;;;2.38;;
79566;SDS011;69030;48.126;7.816;2023-06-10T13:16:40;5.28;;;2.63;;
79566;SDS011;69030;48.126;7.816;2023-06-10T13:19:05;4.72;;;3.05;;
79566;SDS011;69030;48.126;7.816;2023-06-10T13:21:34;3.67;;;2.45;;
79566;SDS011;69030;48.126;7.816;2023-06-10T13:23:59;4.13;;;3.38;;
79566;SDS011;69030;48.126;7.816;2023-06-10T13:26:25;4.80;;;2.75;;
79566;SDS011;69030;48.126;7.816;2023-06-10T13:28:50;3.92;;;2.35;;
79566;SDS011;69030;48.126;7.816;2023-06-10T13:31:15;3.70;;;2.63;;
79566;SDS011;69030;48.126;7.816;2023-06-10T13:33:41;3.20;;;2.90;;
79566;SDS011;69030;48.126;7.816;2023-06-10T13:36:08;4.15;;;2.60;;
79566;SDS011;69030;48.126;7.816;2023-06-10T13:38:43;3.20;;;2.22;;
79566;SDS011;69030;48.126;7.816;2023-06-10T13:41:12;4.00;;;2.38;;
79566;SDS011;69030;48.126;7.816;2023-06-10T13:43:37;5.03;;;2.67;;
79566;SDS011;69030;48.126;7.816;2023-06-10T13:46:03;6.18;;;3.15;;
79566;SDS011;69030;48.126;7.816;2023-06-10T13:48:28;4.20;;;2.63;;
79566;SDS011;69030;48.126;7.816;2023-06-10T13:50:54;2.80;;;1.42;;
79566;SDS011;69030;48.126;7.816;2023-06-10T13:53:19;2.28;;;1.92;;
79566;SDS011;69030;48.126;7.816;2023-06-10T13:55:45;2.67;;;1.65;;
79566;SDS011;69030;48.126;7.816;2023-06-10T13:58:10;2.92;;;2.20;;
79566;SDS011;69030;48.126;7.816;2023-06-10T14:00:35;3.13;;;2.30;;
79566;SDS011;69030;48.126;7.816;2023-06-10T14:03:00;4.00;;;2.63;;
79566;SDS011;69030;48.126;7.816;2023-06-10T14:05:28;3.58;;;2.08;;
79566;SDS011;69030;48.126;7.816;2023-06-10T14:07:53;3.95;;;2.22;;
79566;SDS011;69030;48.126;7.816;2023-06-10T14:10:18;2.58;;;1.65;;
79566;SDS011;69030;48.126;7.816;2023-06-10T14:12:44;3.78;;;2.22;;
79566;SDS011;69030;48.126;7.816;2023-06-10T14:15:09;2.55;;;1.92;;
79566;SDS011;69030;48.126;7.816;2023-06-10T14:17:35;2.67;;;2.08;;
79566;SDS011;69030;48.126;7.816;2023-06-10T14:20:00;2.53;;;2.28;;
79566;SDS011;69030;48.126;7.816;2023-06-10T14:22:26;3.63;;;2.28;;
79566;SDS011;69030;48.126;7.816;2023-06-10T14:24:51;4.38;;;2.13;;
79566;SDS011;69030;48.126;7.816;2023-06-10T14:27:16;2.78;;;2.30;;
79566;SDS011;69030;48.126;7.816;2023-06-10T14:29:41;3.10;;;2.58;;
79566;SDS011;69030;48.126;7.816;2023-06-10T14:32:07;4.20;;;2.38;;
79566;SDS011;69030;48.126;7.816;2023-06-10T14:34:32;4.60;;;2.83;;
79566;SDS011;69030;48.126;7.816;2023-06-10T14:36:59;5.40;;;2.90;;
79566;SDS011;69030;48.126;7.816;2023-06-10T14:39:25;5.30;;;2.85;;
79566;SDS011;69030;48.126;7.816;2023-06-10T14:41:50;3.38;;;3.08;;
79566;SDS011;69030;48.126;7.816;2023-06-10T14:46:43;6.83;;;2.93;;
79566;SDS011;69030;48.126;7.816;2023-06-10T14:49:08;2.53;;;2.30;;
79566;SDS011;69030;48.126;7.816;2023-06-10T14:51:33;2.78;;;2.25;;
79566;SDS011;69030;48.126;7.816;2023-06-10T14:53:59;3.78;;;3.30;;
79566;SDS011;69030;48.126;7.816;2023-06-10T14:56:24;3.05;;;2.05;;
79566;SDS011;69030;48.126;7.816;2023-06-10T14:58:50;2.53;;;2.03;;
79566;SDS011;69030;48.126;7.816;2023-06-10T15:01:16;2.45;;;1.85;;
79566;SDS011;69030;48.126;7.816;2023-06-10T15:03:43;2.95;;;2.60;;
79566;SDS011;69030;48.126;7.816;2023-06-10T15:06:08;2.38;;;2.03;;
79566;SDS011;69030;48.126;7.816;2023-06-10T15:08:34;3.88;;;1.80;;
79566;SDS011;69030;48.126;7.816;2023-06-10T15:10:59;2.72;;;1.70;;
79566;SDS011;69030;48.126;7.816;2023-06-10T15:15:52;2.93;;;1.83;;
79566;SDS011;69030;48.126;7.816;2023-06-10T15:18:17;2.05;;;1.80;;
79566;SDS011;69030;48.126;7.816;2023-06-10T15:20:42;3.97;;;2.67;;
79566;SDS011;69030;48.126;7.816;2023-06-10T15:23:08;11.63;;;4.45;;
79566;SDS011;69030;48.126;7.816;2023-06-10T15:25:33;8.07;;;3.92;;
79566;SDS011;69030;48.126;7.816;2023-06-10T15:27:59;4.75;;;3.47;;
79566;SDS011;69030;48.126;7.816;2023-06-10T15:30:24;6.72;;;3.33;;
79566;SDS011;69030;48.126;7.816;2023-06-10T15:32:49;5.57;;;3.55;;